sensor_id;sensor_type;location;lat;lon;timestamp;P1;durP1;ratioP1;P2;durP2;ratioP2
57433;SDS011;43277;52.672;6.984;2024-03-02T00:00:06;6.07;;;2.38;;
57433;SDS011;43277;52.672;6.984;2024-03-02T00:05:07;7.00;;;4.05;;
57433;SDS011;43277;52.672;6.984;2024-03-02T00:07:33;7.88;;;3.35;;
57433;SDS011;43277;52.672;6.984;2024-03-02T00:09:59;5.70;;;2.08;;
57433;SDS011;43277;52.672;6.984;2024-03-02T00:12:25;9.82;;;2.50;;
57433;SDS011;43277;52.672;6.984;2024-03-02T00:14:51;8.45;;;4.53;;
57433;SDS011;43277;52.672;6.984;2024-03-02T00:17:24;5.75;;;2.95;;
57433;SDS011;43277;52.672;6.984;2024-03-02T00:19:53;6.50;;;3.72;;
57433;SDS011;43277;52.672;6.984;2024-03-02T00:22:18;7.07;;;3.75;;
57433;SDS011;43277;52.672;6.984;2024-03-02T00:24:44;9.13;;;4.43;;
57433;SDS011;43277;52.672;6.984;2024-03-02T00:27:10;6.82;;;4.13;;
57433;SDS011;43277;52.672;6.984;2024-03-02T00:29:40;5.00;;;2.33;;
57433;SDS011;43277;52.672;6.984;2024-03-02T00:32:10;6.85;;;4.55;;
57433;SDS011;43277;52.672;6.984;2024-03-02T00:34:38;6.10;;;3.08;;
57433;SDS011;43277;52.672;6.984;2024-03-02T00:37:04;7.53;;;3.88;;
57433;SDS011;43277;52.672;6.984;2024-03-02T00:39:30;6.35;;;2.50;;
57433;SDS011;43277;52.672;6.984;2024-03-02T00:41:56;6.18;;;3.58;;
57433;SDS011;43277;52.672;6.984;2024-03-02T00:44:22;7.35;;;3.78;;
57433;SDS011;43277;52.672;6.984;2024-03-02T00:46:51;7.85;;;4.43;;
57433;SDS011;43277;52.672;6.984;2024-03-02T00:51:47;7.15;;;3.63;;
57433;SDS011;43277;52.672;6.984;2024-03-02T00:54:20;7.90;;;4.43;;
57433;SDS011;43277;52.672;6.984;2024-03-02T00:56:47;6.90;;;3.33;;
57433;SDS011;43277;52.672;6.984;2024-03-02T00:59:13;6.75;;;4.00;;
57433;SDS011;43277;52.672;6.984;2024-03-02T01:01:38;7.00;;;3.15;;
57433;SDS011;43277;52.672;6.984;2024-03-02T01:04:04;3.92;;;1.50;;
57433;SDS011;43277;52.672;6.984;2024-03-02T01:06:30;6.90;;;3.38;;
57433;SDS011;43277;52.672;6.984;2024-03-02T01:08:56;4.13;;;1.73;;
57433;SDS011;43277;52.672;6.984;2024-03-02T01:11:21;6.05;;;3.10;;
57433;SDS011;43277;52.672;6.984;2024-03-02T01:13:47;6.45;;;4.00;;
57433;SDS011;43277;52.672;6.984;2024-03-02T01:16:13;7.40;;;3.38;;
57433;SDS011;43277;52.672;6.984;2024-03-02T01:18:40;6.35;;;3.53;;
57433;SDS011;43277;52.672;6.984;2024-03-02T01:21:06;6.78;;;2.90;;
57433;SDS011;43277;52.672;6.984;2024-03-02T01:23:31;8.32;;;3.88;;
57433;SDS011;43277;52.672;6.984;2024-03-02T01:25:57;6.63;;;3.47;;
57433;SDS011;43277;52.672;6.984;2024-03-02T01:28:23;7.55;;;4.40;;
57433;SDS011;43277;52.672;6.984;2024-03-02T01:30:48;6.78;;;4.00;;
57433;SDS011;43277;52.672;6.984;2024-03-02T01:33:15;7.50;;;3.20;;
57433;SDS011;43277;52.672;6.984;2024-03-02T01:35:41;6.95;;;3.05;;
57433;SDS011;43277;52.672;6.984;2024-03-02T01:38:07;6.22;;;2.60;;
57433;SDS011;43277;52.672;6.984;2024-03-02T01:40:36;7.45;;;3.28;;
57433;SDS011;43277;52.672;6.984;2024-03-02T01:43:03;6.05;;;2.92;;
57433;SDS011;43277;52.672;6.984;2024-03-02T01:45:29;4.57;;;2.58;;
57433;SDS011;43277;52.672;6.984;2024-03-02T01:47:55;8.13;;;3.80;;
57433;SDS011;43277;52.672;6.984;2024-03-02T01:50:28;6.03;;;3.35;;
57433;SDS011;43277;52.672;6.984;2024-03-02T01:52:57;4.88;;;1.77;;
57433;SDS011;43277;52.672;6.984;2024-03-02T01:55:23;7.30;;;2.90;;
57433;SDS011;43277;52.672;6.984;2024-03-02T01:57:49;6.03;;;3.55;;
57433;SDS011;43277;52.672;6.984;2024-03-02T02:00:22;6.72;;;3.47;;
57433;SDS011;43277;52.672;6.984;2024-03-02T02:05:17;6.82;;;3.38;;
57433;SDS011;43277;52.672;6.984;2024-03-02T02:07:43;7.80;;;3.80;;
57433;SDS011;43277;52.672;6.984;2024-03-02T02:10:12;5.88;;;3.25;;
57433;SDS011;43277;52.672;6.984;2024-03-02T02:12:38;6.05;;;3.30;;
57433;SDS011;43277;52.672;6.984;2024-03-02T02:15:04;6.97;;;3.40;;
57433;SDS011;43277;52.672;6.984;2024-03-02T02:17:49;4.18;;;2.28;;
57433;SDS011;43277;52.672;6.984;2024-03-02T02:20:14;5.43;;;2.50;;
57433;SDS011;43277;52.672;6.984;2024-03-02T02:22:40;5.70;;;3.20;;
57433;SDS011;43277;52.672;6.984;2024-03-02T02:25:06;5.68;;;2.55;;
57433;SDS011;43277;52.672;6.984;2024-03-02T02:27:31;6.95;;;2.80;;
57433;SDS011;43277;52.672;6.984;2024-03-02T02:29:57;5.13;;;1.73;;
57433;SDS011;43277;52.672;6.984;2024-03-02T02:32:23;5.18;;;2.33;;
57433;SDS011;43277;52.672;6.984;2024-03-02T02:34:52;4.50;;;2.30;;
57433;SDS011;43277;52.672;6.984;2024-03-02T02:37:17;4.28;;;1.60;;
57433;SDS011;43277;52.672;6.984;2024-03-02T02:39:43;4.80;;;1.88;;
57433;SDS011;43277;52.672;6.984;2024-03-02T02:42:09;5.93;;;3.10;;
57433;SDS011;43277;52.672;6.984;2024-03-02T02:44:34;7.40;;;3.25;;
57433;SDS011;43277;52.672;6.984;2024-03-02T02:47:00;4.88;;;2.00;;
57433;SDS011;43277;52.672;6.984;2024-03-02T02:49:26;5.50;;;3.00;;
57433;SDS011;43277;52.672;6.984;2024-03-02T02:51:53;6.07;;;2.85;;
57433;SDS011;43277;52.672;6.984;2024-03-02T02:54:19;5.97;;;2.65;;
57433;SDS011;43277;52.672;6.984;2024-03-02T02:56:45;5.25;;;2.47;;
57433;SDS011;43277;52.672;6.984;2024-03-02T02:59:10;7.85;;;2.70;;
57433;SDS011;43277;52.672;6.984;2024-03-02T03:01:36;6.53;;;2.85;;
57433;SDS011;43277;52.672;6.984;2024-03-02T03:04:01;5.57;;;2.47;;
57433;SDS011;43277;52.672;6.984;2024-03-02T03:06:27;5.90;;;2.67;;
57433;SDS011;43277;52.672;6.984;2024-03-02T03:08:52;6.00;;;2.30;;
57433;SDS011;43277;52.672;6.984;2024-03-02T03:11:18;5.60;;;2.83;;
57433;SDS011;43277;52.672;6.984;2024-03-02T03:13:44;6.10;;;3.08;;
57433;SDS011;43277;52.672;6.984;2024-03-02T03:16:09;6.80;;;3.42;;
57433;SDS011;43277;52.672;6.984;2024-03-02T03:18:35;7.03;;;3.10;;
57433;SDS011;43277;52.672;6.984;2024-03-02T03:21:01;5.13;;;2.13;;
57433;SDS011;43277;52.672;6.984;2024-03-02T03:23:26;8.15;;;3.17;;
57433;SDS011;43277;52.672;6.984;2024-03-02T03:25:52;5.95;;;2.30;;
57433;SDS011;43277;52.672;6.984;2024-03-02T03:28:18;6.88;;;2.75;;
57433;SDS011;43277;52.672;6.984;2024-03-02T03:30:43;5.95;;;3.00;;
57433;SDS011;43277;52.672;6.984;2024-03-02T03:33:09;6.88;;;3.38;;
57433;SDS011;43277;52.672;6.984;2024-03-02T03:35:34;5.47;;;2.92;;
57433;SDS011;43277;52.672;6.984;2024-03-02T03:38:01;5.60;;;2.78;;
57433;SDS011;43277;52.672;6.984;2024-03-02T03:40:27;6.20;;;2.95;;
57433;SDS011;43277;52.672;6.984;2024-03-02T03:42:52;6.55;;;2.75;;
57433;SDS011;43277;52.672;6.984;2024-03-02T03:45:18;7.45;;;3.38;;
57433;SDS011;43277;52.672;6.984;2024-03-02T03:47:43;7.25;;;2.60;;
57433;SDS011;43277;52.672;6.984;2024-03-02T03:50:09;6.57;;;3.08;;
57433;SDS011;43277;52.672;6.984;2024-03-02T03:52:35;6.00;;;3.00;;
57433;SDS011;43277;52.672;6.984;2024-03-02T03:55:01;6.40;;;3.13;;
57433;SDS011;43277;52.672;6.984;2024-03-02T03:57:27;5.63;;;2.78;;
57433;SDS011;43277;52.672;6.984;2024-03-02T03:59:53;7.78;;;2.05;;
57433;SDS011;43277;52.672;6.984;2024-03-02T04:02:19;7.18;;;1.85;;
57433;SDS011;43277;52.672;6.984;2024-03-02T04:04:44;5.15;;;2.00;;
57433;SDS011;43277;52.672;6.984;2024-03-02T04:07:10;4.45;;;1.70;;
57433;SDS011;43277;52.672;6.984;2024-03-02T04:09:35;5.75;;;2.75;;
57433;SDS011;43277;52.672;6.984;2024-03-02T04:12:01;5.93;;;2.67;;
57433;SDS011;43277;52.672;6.984;2024-03-02T04:14:27;6.85;;;3.15;;
57433;SDS011;43277;52.672;6.984;2024-03-02T04:16:52;6.13;;;3.35;;
57433;SDS011;43277;52.672;6.984;2024-03-02T04:19:18;6.53;;;3.20;;
57433;SDS011;43277;52.672;6.984;2024-03-02T04:21:43;6.68;;;3.47;;
57433;SDS011;43277;52.672;6.984;2024-03-02T04:24:09;6.25;;;3.13;;
57433;SDS011;43277;52.672;6.984;2024-03-02T04:26:35;4.75;;;2.00;;
57433;SDS011;43277;52.672;6.984;2024-03-02T04:29:00;5.45;;;2.67;;
57433;SDS011;43277;52.672;6.984;2024-03-02T04:31:26;5.47;;;2.03;;
57433;SDS011;43277;52.672;6.984;2024-03-02T04:33:52;8.93;;;3.50;;
57433;SDS011;43277;52.672;6.984;2024-03-02T04:36:19;6.18;;;2.00;;
57433;SDS011;43277;52.672;6.984;2024-03-02T04:38:45;6.25;;;3.60;;
57433;SDS011;43277;52.672;6.984;2024-03-02T04:41:10;6.75;;;3.58;;
57433;SDS011;43277;52.672;6.984;2024-03-02T04:43:36;5.47;;;2.55;;
57433;SDS011;43277;52.672;6.984;2024-03-02T04:46:02;6.88;;;3.53;;
57433;SDS011;43277;52.672;6.984;2024-03-02T04:48:27;7.85;;;3.63;;
57433;SDS011;43277;52.672;6.984;2024-03-02T04:50:53;6.15;;;3.15;;
57433;SDS011;43277;52.672;6.984;2024-03-02T04:53:19;4.10;;;1.80;;
57433;SDS011;43277;52.672;6.984;2024-03-02T04:55:44;5.70;;;1.92;;
57433;SDS011;43277;52.672;6.984;2024-03-02T04:58:19;7.32;;;4.28;;
57433;SDS011;43277;52.672;6.984;2024-03-02T05:00:44;7.60;;;3.60;;
57433;SDS011;43277;52.672;6.984;2024-03-02T05:03:11;6.25;;;3.00;;
57433;SDS011;43277;52.672;6.984;2024-03-02T05:05:38;6.72;;;3.15;;
57433;SDS011;43277;52.672;6.984;2024-03-02T05:08:03;7.50;;;3.80;;
57433;SDS011;43277;52.672;6.984;2024-03-02T05:10:29;6.15;;;3.15;;
57433;SDS011;43277;52.672;6.984;2024-03-02T05:12:55;11.90;;;3.80;;
57433;SDS011;43277;52.672;6.984;2024-03-02T05:15:22;6.95;;;4.28;;
57433;SDS011;43277;52.672;6.984;2024-03-02T05:17:47;6.68;;;4.30;;
57433;SDS011;43277;52.672;6.984;2024-03-02T05:20:13;6.88;;;4.28;;
57433;SDS011;43277;52.672;6.984;2024-03-02T05:22:38;6.60;;;4.03;;
57433;SDS011;43277;52.672;6.984;2024-03-02T05:25:05;6.55;;;3.60;;
57433;SDS011;43277;52.672;6.984;2024-03-02T05:27:31;7.88;;;3.40;;
57433;SDS011;43277;52.672;6.984;2024-03-02T05:30:00;8.20;;;4.32;;
57433;SDS011;43277;52.672;6.984;2024-03-02T05:32:26;6.80;;;3.63;;
57433;SDS011;43277;52.672;6.984;2024-03-02T05:34:52;6.80;;;3.70;;
57433;SDS011;43277;52.672;6.984;2024-03-02T05:37:17;7.25;;;4.40;;
57433;SDS011;43277;52.672;6.984;2024-03-02T05:39:43;7.30;;;2.28;;
57433;SDS011;43277;52.672;6.984;2024-03-02T05:42:09;5.53;;;1.98;;
57433;SDS011;43277;52.672;6.984;2024-03-02T05:44:35;6.75;;;3.33;;
57433;SDS011;43277;52.672;6.984;2024-03-02T05:47:01;7.38;;;4.13;;
57433;SDS011;43277;52.672;6.984;2024-03-02T05:49:27;7.45;;;4.15;;
57433;SDS011;43277;52.672;6.984;2024-03-02T05:51:52;5.85;;;2.58;;
57433;SDS011;43277;52.672;6.984;2024-03-02T05:54:18;7.07;;;4.15;;
57433;SDS011;43277;52.672;6.984;2024-03-02T05:56:44;6.50;;;3.85;;
57433;SDS011;43277;52.672;6.984;2024-03-02T05:59:09;5.22;;;2.40;;
57433;SDS011;43277;52.672;6.984;2024-03-02T06:01:44;9.23;;;4.22;;
57433;SDS011;43277;52.672;6.984;2024-03-02T06:04:16;7.13;;;2.78;;
57433;SDS011;43277;52.672;6.984;2024-03-02T06:06:42;7.03;;;3.72;;
57433;SDS011;43277;52.672;6.984;2024-03-02T06:09:08;7.45;;;4.50;;
57433;SDS011;43277;52.672;6.984;2024-03-02T06:11:37;7.50;;;4.22;;
57433;SDS011;43277;52.672;6.984;2024-03-02T06:14:04;4.88;;;2.00;;
57433;SDS011;43277;52.672;6.984;2024-03-02T06:16:30;6.72;;;4.13;;
57433;SDS011;43277;52.672;6.984;2024-03-02T06:18:56;6.93;;;2.45;;
57433;SDS011;43277;52.672;6.984;2024-03-02T06:21:23;7.47;;;3.38;;
57433;SDS011;43277;52.672;6.984;2024-03-02T06:23:49;7.65;;;2.28;;
57433;SDS011;43277;52.672;6.984;2024-03-02T06:26:14;7.78;;;4.32;;
57433;SDS011;43277;52.672;6.984;2024-03-02T06:28:40;7.40;;;4.43;;
57433;SDS011;43277;52.672;6.984;2024-03-02T06:31:06;7.13;;;4.40;;
57433;SDS011;43277;52.672;6.984;2024-03-02T06:33:31;7.03;;;4.70;;
57433;SDS011;43277;52.672;6.984;2024-03-02T06:35:57;7.75;;;4.53;;
57433;SDS011;43277;52.672;6.984;2024-03-02T06:38:23;6.82;;;4.38;;
57433;SDS011;43277;52.672;6.984;2024-03-02T06:40:48;7.20;;;4.28;;
57433;SDS011;43277;52.672;6.984;2024-03-02T06:43:14;6.35;;;2.00;;
57433;SDS011;43277;52.672;6.984;2024-03-02T06:45:40;7.35;;;4.60;;
57433;SDS011;43277;52.672;6.984;2024-03-02T06:48:06;5.47;;;2.28;;
57433;SDS011;43277;52.672;6.984;2024-03-02T06:50:32;5.63;;;2.78;;
57433;SDS011;43277;52.672;6.984;2024-03-02T06:52:58;6.65;;;4.35;;
57433;SDS011;43277;52.672;6.984;2024-03-02T06:55:29;6.78;;;2.20;;
57433;SDS011;43277;52.672;6.984;2024-03-02T06:57:54;7.72;;;4.35;;
57433;SDS011;43277;52.672;6.984;2024-03-02T07:00:20;7.25;;;4.22;;
57433;SDS011;43277;52.672;6.984;2024-03-02T07:02:46;7.00;;;4.32;;
57433;SDS011;43277;52.672;6.984;2024-03-02T07:05:12;8.20;;;4.38;;
57433;SDS011;43277;52.672;6.984;2024-03-02T07:07:38;6.80;;;4.05;;
57433;SDS011;43277;52.672;6.984;2024-03-02T07:10:04;8.35;;;4.50;;
57433;SDS011;43277;52.672;6.984;2024-03-02T07:12:30;6.28;;;2.25;;
57433;SDS011;43277;52.672;6.984;2024-03-02T07:14:56;7.40;;;4.55;;
57433;SDS011;43277;52.672;6.984;2024-03-02T07:17:28;7.07;;;3.72;;
57433;SDS011;43277;52.672;6.984;2024-03-02T07:19:54;8.80;;;4.60;;
57433;SDS011;43277;52.672;6.984;2024-03-02T07:22:20;6.63;;;4.45;;
57433;SDS011;43277;52.672;6.984;2024-03-02T07:24:45;7.47;;;4.28;;
57433;SDS011;43277;52.672;6.984;2024-03-02T07:27:11;7.95;;;3.08;;
57433;SDS011;43277;52.672;6.984;2024-03-02T07:29:38;7.55;;;4.70;;
57433;SDS011;43277;52.672;6.984;2024-03-02T07:32:05;7.07;;;3.75;;
57433;SDS011;43277;52.672;6.984;2024-03-02T07:34:31;7.18;;;2.35;;
57433;SDS011;43277;52.672;6.984;2024-03-02T07:36:57;8.25;;;3.45;;
57433;SDS011;43277;52.672;6.984;2024-03-02T07:39:23;6.50;;;3.42;;
57433;SDS011;43277;52.672;6.984;2024-03-02T07:41:49;6.00;;;2.40;;
57433;SDS011;43277;52.672;6.984;2024-03-02T07:44:15;5.97;;;3.28;;
57433;SDS011;43277;52.672;6.984;2024-03-02T07:46:47;7.75;;;4.13;;
57433;SDS011;43277;52.672;6.984;2024-03-02T07:49:16;7.55;;;4.40;;
57433;SDS011;43277;52.672;6.984;2024-03-02T07:51:42;7.22;;;4.15;;
57433;SDS011;43277;52.672;6.984;2024-03-02T07:54:08;5.32;;;2.47;;
57433;SDS011;43277;52.672;6.984;2024-03-02T07:56:34;8.38;;;4.30;;
57433;SDS011;43277;52.672;6.984;2024-03-02T07:59:01;7.40;;;4.07;;
57433;SDS011;43277;52.672;6.984;2024-03-02T08:01:32;8.15;;;4.88;;
57433;SDS011;43277;52.672;6.984;2024-03-02T08:03:59;8.25;;;3.67;;
57433;SDS011;43277;52.672;6.984;2024-03-02T08:06:26;6.90;;;3.10;;
57433;SDS011;43277;52.672;6.984;2024-03-02T08:08:59;8.52;;;4.80;;
57433;SDS011;43277;52.672;6.984;2024-03-02T08:11:26;7.30;;;4.45;;
57433;SDS011;43277;52.672;6.984;2024-03-02T08:13:56;7.10;;;4.57;;
57433;SDS011;43277;52.672;6.984;2024-03-02T08:16:24;7.22;;;2.90;;
57433;SDS011;43277;52.672;6.984;2024-03-02T08:18:50;10.00;;;2.67;;
57433;SDS011;43277;52.672;6.984;2024-03-02T08:21:16;7.68;;;4.78;;
57433;SDS011;43277;52.672;6.984;2024-03-02T08:23:42;4.07;;;1.88;;
57433;SDS011;43277;52.672;6.984;2024-03-02T08:26:09;8.48;;;4.35;;
57433;SDS011;43277;52.672;6.984;2024-03-02T08:28:35;7.65;;;4.75;;
57433;SDS011;43277;52.672;6.984;2024-03-02T08:31:05;7.38;;;4.38;;
57433;SDS011;43277;52.672;6.984;2024-03-02T08:33:31;8.63;;;4.95;;
57433;SDS011;43277;52.672;6.984;2024-03-02T08:35:57;8.15;;;4.45;;
57433;SDS011;43277;52.672;6.984;2024-03-02T08:38:23;7.47;;;3.17;;
57433;SDS011;43277;52.672;6.984;2024-03-02T08:40:49;9.68;;;4.50;;
57433;SDS011;43277;52.672;6.984;2024-03-02T08:43:15;8.32;;;4.05;;
57433;SDS011;43277;52.672;6.984;2024-03-02T08:45:41;8.45;;;4.32;;
57433;SDS011;43277;52.672;6.984;2024-03-02T08:48:09;7.57;;;3.15;;
57433;SDS011;43277;52.672;6.984;2024-03-02T08:50:35;7.35;;;3.75;;
57433;SDS011;43277;52.672;6.984;2024-03-02T08:53:02;7.47;;;3.60;;
57433;SDS011;43277;52.672;6.984;2024-03-02T08:55:30;7.00;;;4.05;;
57433;SDS011;43277;52.672;6.984;2024-03-02T08:57:56;6.85;;;2.42;;
57433;SDS011;43277;52.672;6.984;2024-03-02T09:00:23;5.97;;;2.70;;
57433;SDS011;43277;52.672;6.984;2024-03-02T09:02:49;6.97;;;4.00;;
57433;SDS011;43277;52.672;6.984;2024-03-02T09:05:14;6.28;;;3.08;;
57433;SDS011;43277;52.672;6.984;2024-03-02T09:07:41;8.15;;;3.50;;
57433;SDS011;43277;52.672;6.984;2024-03-02T09:10:07;5.88;;;2.15;;
57433;SDS011;43277;52.672;6.984;2024-03-02T09:12:33;8.63;;;3.85;;
57433;SDS011;43277;52.672;6.984;2024-03-02T09:15:02;9.02;;;3.15;;
57433;SDS011;43277;52.672;6.984;2024-03-02T09:17:31;6.55;;;3.22;;
57433;SDS011;43277;52.672;6.984;2024-03-02T09:19:57;7.95;;;3.28;;
57433;SDS011;43277;52.672;6.984;2024-03-02T09:22:22;8.18;;;2.28;;
57433;SDS011;43277;52.672;6.984;2024-03-02T09:24:48;7.20;;;2.80;;
57433;SDS011;43277;52.672;6.984;2024-03-02T09:27:14;7.72;;;2.78;;
57433;SDS011;43277;52.672;6.984;2024-03-02T09:29:39;6.57;;;3.13;;
57433;SDS011;43277;52.672;6.984;2024-03-02T09:32:05;7.82;;;3.28;;
57433;SDS011;43277;52.672;6.984;2024-03-02T09:34:32;6.80;;;2.95;;
57433;SDS011;43277;52.672;6.984;2024-03-02T09:36:58;6.90;;;2.30;;
57433;SDS011;43277;52.672;6.984;2024-03-02T09:39:23;8.07;;;2.63;;
57433;SDS011;43277;52.672;6.984;2024-03-02T09:41:50;7.38;;;1.95;;
57433;SDS011;43277;52.672;6.984;2024-03-02T09:44:16;5.40;;;1.60;;
57433;SDS011;43277;52.672;6.984;2024-03-02T09:46:42;5.13;;;2.28;;
57433;SDS011;43277;52.672;6.984;2024-03-02T09:49:09;4.80;;;1.45;;
57433;SDS011;43277;52.672;6.984;2024-03-02T09:51:36;5.28;;;2.13;;
57433;SDS011;43277;52.672;6.984;2024-03-02T09:54:02;8.27;;;2.78;;
57433;SDS011;43277;52.672;6.984;2024-03-02T09:56:28;6.65;;;2.80;;
57433;SDS011;43277;52.672;6.984;2024-03-02T09:58:53;5.85;;;2.20;;
57433;SDS011;43277;52.672;6.984;2024-03-02T10:01:19;6.07;;;1.95;;
57433;SDS011;43277;52.672;6.984;2024-03-02T10:03:45;8.30;;;2.83;;
57433;SDS011;43277;52.672;6.984;2024-03-02T10:06:18;5.82;;;2.05;;
57433;SDS011;43277;52.672;6.984;2024-03-02T10:08:48;6.55;;;2.40;;
57433;SDS011;43277;52.672;6.984;2024-03-02T10:14:09;5.57;;;2.00;;
57433;SDS011;43277;52.672;6.984;2024-03-02T10:16:36;7.55;;;2.60;;
57433;SDS011;43277;52.672;6.984;2024-03-02T10:19:38;5.70;;;2.22;;
57433;SDS011;43277;52.672;6.984;2024-03-02T10:22:03;6.55;;;2.35;;
57433;SDS011;43277;52.672;6.984;2024-03-02T10:24:42;7.88;;;1.95;;
57433;SDS011;43277;52.672;6.984;2024-03-02T10:27:41;7.53;;;2.35;;
57433;SDS011;43277;52.672;6.984;2024-03-02T10:30:04;6.03;;;2.03;;
57433;SDS011;43277;52.672;6.984;2024-03-02T10:32:31;6.50;;;2.35;;
57433;SDS011;43277;52.672;6.984;2024-03-02T10:34:56;7.55;;;2.25;;
57433;SDS011;43277;52.672;6.984;2024-03-02T10:37:23;6.40;;;2.13;;
57433;SDS011;43277;52.672;6.984;2024-03-02T10:39:49;9.20;;;2.17;;
57433;SDS011;43277;52.672;6.984;2024-03-02T10:42:17;5.60;;;2.08;;
57433;SDS011;43277;52.672;6.984;2024-03-02T10:44:44;6.22;;;2.03;;
57433;SDS011;43277;52.672;6.984;2024-03-02T10:47:10;2.28;;;0.95;;
57433;SDS011;43277;52.672;6.984;2024-03-02T10:49:38;4.60;;;1.52;;
57433;SDS011;43277;52.672;6.984;2024-03-02T10:52:07;4.60;;;1.40;;
57433;SDS011;43277;52.672;6.984;2024-03-02T10:54:34;6.97;;;2.13;;
57433;SDS011;43277;52.672;6.984;2024-03-02T10:57:04;6.13;;;2.20;;
57433;SDS011;43277;52.672;6.984;2024-03-02T10:59:37;6.25;;;2.10;;
57433;SDS011;43277;52.672;6.984;2024-03-02T11:04:42;5.90;;;1.65;;
57433;SDS011;43277;52.672;6.984;2024-03-02T11:07:09;6.85;;;1.90;;
57433;SDS011;43277;52.672;6.984;2024-03-02T11:09:37;5.88;;;1.98;;
57433;SDS011;43277;52.672;6.984;2024-03-02T11:15:00;6.03;;;1.95;;
57433;SDS011;43277;52.672;6.984;2024-03-02T11:17:29;5.93;;;2.15;;
57433;SDS011;43277;52.672;6.984;2024-03-02T11:19:56;5.78;;;2.13;;
57433;SDS011;43277;52.672;6.984;2024-03-02T11:22:22;6.93;;;2.00;;
57433;SDS011;43277;52.672;6.984;2024-03-02T11:24:49;6.40;;;1.90;;
57433;SDS011;43277;52.672;6.984;2024-03-02T11:27:20;7.05;;;2.17;;
57433;SDS011;43277;52.672;6.984;2024-03-02T11:30:48;7.07;;;2.10;;
57433;SDS011;43277;52.672;6.984;2024-03-02T11:33:03;6.15;;;2.00;;
57433;SDS011;43277;52.672;6.984;2024-03-02T11:35:33;5.82;;;1.75;;
57433;SDS011;43277;52.672;6.984;2024-03-02T11:38:00;5.30;;;2.10;;
57433;SDS011;43277;52.672;6.984;2024-03-02T11:40:28;5.75;;;1.77;;
57433;SDS011;43277;52.672;6.984;2024-03-02T11:42:55;5.68;;;1.98;;
57433;SDS011;43277;52.672;6.984;2024-03-02T11:45:24;5.78;;;1.88;;
57433;SDS011;43277;52.672;6.984;2024-03-02T11:47:52;8.70;;;1.65;;
57433;SDS011;43277;52.672;6.984;2024-03-02T11:50:35;5.15;;;1.60;;
57433;SDS011;43277;52.672;6.984;2024-03-02T11:53:05;4.80;;;1.42;;
57433;SDS011;43277;52.672;6.984;2024-03-02T11:55:31;6.32;;;1.80;;
57433;SDS011;43277;52.672;6.984;2024-03-02T11:58:03;4.50;;;1.50;;
57433;SDS011;43277;52.672;6.984;2024-03-02T12:00:29;4.32;;;1.30;;
57433;SDS011;43277;52.672;6.984;2024-03-02T12:03:04;5.40;;;1.30;;
57433;SDS011;43277;52.672;6.984;2024-03-02T12:05:31;4.72;;;1.27;;
57433;SDS011;43277;52.672;6.984;2024-03-02T12:07:58;4.60;;;1.25;;
57433;SDS011;43277;52.672;6.984;2024-03-02T12:10:28;4.65;;;1.25;;
57433;SDS011;43277;52.672;6.984;2024-03-02T12:15:28;5.18;;;1.30;;
57433;SDS011;43277;52.672;6.984;2024-03-02T12:17:58;4.38;;;1.25;;
57433;SDS011;43277;52.672;6.984;2024-03-02T12:20:25;5.65;;;1.30;;
57433;SDS011;43277;52.672;6.984;2024-03-02T12:22:54;4.60;;;1.40;;
57433;SDS011;43277;52.672;6.984;2024-03-02T12:25:21;3.83;;;1.05;;
57433;SDS011;43277;52.672;6.984;2024-03-02T12:27:48;5.47;;;1.40;;
57433;SDS011;43277;52.672;6.984;2024-03-02T12:30:18;5.95;;;1.20;;
57433;SDS011;43277;52.672;6.984;2024-03-02T12:32:44;4.78;;;1.20;;
57433;SDS011;43277;52.672;6.984;2024-03-02T12:35:11;4.55;;;1.02;;
57433;SDS011;43277;52.672;6.984;2024-03-02T12:37:49;5.25;;;1.30;;
57433;SDS011;43277;52.672;6.984;2024-03-02T12:40:16;5.43;;;1.10;;
57433;SDS011;43277;52.672;6.984;2024-03-02T12:42:43;5.72;;;1.60;;
57433;SDS011;43277;52.672;6.984;2024-03-02T12:45:10;6.20;;;1.25;;
57433;SDS011;43277;52.672;6.984;2024-03-02T12:47:36;4.50;;;1.20;;
57433;SDS011;43277;52.672;6.984;2024-03-02T12:50:03;4.50;;;1.10;;
57433;SDS011;43277;52.672;6.984;2024-03-02T12:52:29;3.97;;;1.10;;
57433;SDS011;43277;52.672;6.984;2024-03-02T12:54:57;3.88;;;1.30;;
57433;SDS011;43277;52.672;6.984;2024-03-02T12:57:28;4.40;;;1.17;;
57433;SDS011;43277;52.672;6.984;2024-03-02T13:00:02;4.32;;;1.10;;
57433;SDS011;43277;52.672;6.984;2024-03-02T13:02:36;4.38;;;1.17;;
57433;SDS011;43277;52.672;6.984;2024-03-02T13:05:06;3.60;;;1.17;;
57433;SDS011;43277;52.672;6.984;2024-03-02T13:07:36;5.43;;;1.23;;
57433;SDS011;43277;52.672;6.984;2024-03-02T13:10:02;4.13;;;1.30;;
57433;SDS011;43277;52.672;6.984;2024-03-02T13:12:29;5.07;;;1.30;;
57433;SDS011;43277;52.672;6.984;2024-03-02T13:14:57;5.57;;;1.52;;
57433;SDS011;43277;52.672;6.984;2024-03-02T13:17:24;6.28;;;1.48;;
57433;SDS011;43277;52.672;6.984;2024-03-02T13:22:19;5.30;;;1.73;;
57433;SDS011;43277;52.672;6.984;2024-03-02T13:24:45;4.85;;;1.50;;
57433;SDS011;43277;52.672;6.984;2024-03-02T13:27:10;5.75;;;1.52;;
57433;SDS011;43277;52.672;6.984;2024-03-02T13:29:36;6.57;;;2.17;;
57433;SDS011;43277;52.672;6.984;2024-03-02T13:32:02;5.97;;;1.70;;
57433;SDS011;43277;52.672;6.984;2024-03-02T13:34:28;6.53;;;1.90;;
57433;SDS011;43277;52.672;6.984;2024-03-02T13:36:53;6.03;;;1.60;;
57433;SDS011;43277;52.672;6.984;2024-03-02T13:39:19;5.43;;;1.70;;
57433;SDS011;43277;52.672;6.984;2024-03-02T13:41:44;5.82;;;1.63;;
57433;SDS011;43277;52.672;6.984;2024-03-02T13:44:17;6.32;;;2.10;;
57433;SDS011;43277;52.672;6.984;2024-03-02T13:46:44;7.28;;;1.70;;
57433;SDS011;43277;52.672;6.984;2024-03-02T13:49:10;5.90;;;1.88;;
57433;SDS011;43277;52.672;6.984;2024-03-02T13:51:36;4.43;;;1.70;;
57433;SDS011;43277;52.672;6.984;2024-03-02T13:54:02;5.63;;;1.90;;
57433;SDS011;43277;52.672;6.984;2024-03-02T13:56:28;6.50;;;1.90;;
57433;SDS011;43277;52.672;6.984;2024-03-02T13:58:57;5.57;;;1.90;;
57433;SDS011;43277;52.672;6.984;2024-03-02T14:01:24;6.10;;;2.30;;
57433;SDS011;43277;52.672;6.984;2024-03-02T14:03:50;5.20;;;2.10;;
57433;SDS011;43277;52.672;6.984;2024-03-02T14:06:16;5.68;;;2.03;;
57433;SDS011;43277;52.672;6.984;2024-03-02T14:08:42;5.40;;;2.30;;
57433;SDS011;43277;52.672;6.984;2024-03-02T14:11:09;6.63;;;1.85;;
57433;SDS011;43277;52.672;6.984;2024-03-02T14:13:39;7.83;;;2.67;;
57433;SDS011;43277;52.672;6.984;2024-03-02T14:16:06;6.05;;;2.00;;
57433;SDS011;43277;52.672;6.984;2024-03-02T14:18:31;5.57;;;2.00;;
57433;SDS011;43277;52.672;6.984;2024-03-02T14:20:57;5.55;;;2.33;;
57433;SDS011;43277;52.672;6.984;2024-03-02T14:23:23;5.05;;;2.05;;
57433;SDS011;43277;52.672;6.984;2024-03-02T14:25:50;6.10;;;2.08;;
57433;SDS011;43277;52.672;6.984;2024-03-02T14:28:16;6.18;;;1.92;;
57433;SDS011;43277;52.672;6.984;2024-03-02T14:30:42;5.68;;;1.90;;
57433;SDS011;43277;52.672;6.984;2024-03-02T14:33:07;5.72;;;2.00;;
57433;SDS011;43277;52.672;6.984;2024-03-02T14:35:33;6.20;;;1.85;;
57433;SDS011;43277;52.672;6.984;2024-03-02T14:37:58;4.15;;;1.65;;
57433;SDS011;43277;52.672;6.984;2024-03-02T14:40:24;5.53;;;1.77;;
57433;SDS011;43277;52.672;6.984;2024-03-02T14:42:52;7.00;;;1.75;;
57433;SDS011;43277;52.672;6.984;2024-03-02T14:45:18;4.78;;;1.70;;
57433;SDS011;43277;52.672;6.984;2024-03-02T14:47:43;5.40;;;1.60;;
57433;SDS011;43277;52.672;6.984;2024-03-02T14:50:09;6.00;;;1.88;;
57433;SDS011;43277;52.672;6.984;2024-03-02T14:52:36;7.38;;;1.80;;
57433;SDS011;43277;52.672;6.984;2024-03-02T14:55:01;5.25;;;1.50;;
57433;SDS011;43277;52.672;6.984;2024-03-02T14:57:32;4.38;;;1.50;;
57433;SDS011;43277;52.672;6.984;2024-03-02T14:59:58;4.63;;;1.70;;
57433;SDS011;43277;52.672;6.984;2024-03-02T15:02:23;6.53;;;1.58;;
57433;SDS011;43277;52.672;6.984;2024-03-02T15:04:49;4.65;;;1.50;;
57433;SDS011;43277;52.672;6.984;2024-03-02T15:07:15;5.50;;;1.52;;